createdAt,value
2023-05-22T00:02:42.908Z,16.01
2023-05-22T00:07:46.100Z,15.96
2023-05-22T00:12:47.680Z,15.80
2023-05-22T00:17:49.927Z,15.74
2023-05-22T00:22:51.517Z,15.68
2023-05-22T00:27:52.999Z,15.62
2023-05-22T00:32:54.504Z,15.50
2023-05-22T00:37:56.035Z,15.43
2023-05-22T00:42:57.606Z,15.47
2023-05-22T00:47:59.060Z,15.34
2023-05-22T00:53:01.125Z,15.33
2023-05-22T00:58:08.965Z,15.28
2023-05-22T01:03:10.896Z,15.15
2023-05-22T01:08:12.504Z,15.11
2023-05-22T01:13:36.541Z,15.08
2023-05-22T01:18:56.039Z,14.97
2023-05-22T01:24:26.596Z,14.94
2023-05-22T01:30:02.888Z,14.87
2023-05-22T01:35:11.702Z,14.85
2023-05-22T01:40:13.769Z,14.84
2023-05-22T01:45:15.239Z,14.81
2023-05-22T01:50:16.982Z,14.74
2023-05-22T01:55:40.439Z,14.64
2023-05-22T02:00:45.958Z,14.64
2023-05-22T02:05:51.806Z,14.64
2023-05-22T02:10:56.161Z,14.46
2023-05-22T02:15:58.715Z,14.47
2023-05-22T02:21:00.854Z,14.29
2023-05-22T02:26:02.307Z,14.29
2023-05-22T02:31:04.333Z,14.31
2023-05-22T02:36:06.196Z,14.13
2023-05-22T02:41:08.324Z,13.90
2023-05-22T02:46:09.846Z,13.99
2023-05-22T02:51:11.867Z,13.85
2023-05-22T02:56:13.331Z,13.87
2023-05-22T03:01:15.579Z,13.77
2023-05-22T03:06:17.436Z,13.78
2023-05-22T03:11:18.949Z,13.70
2023-05-22T03:16:20.579Z,13.63
2023-05-22T03:21:22.083Z,13.38
2023-05-22T03:26:23.519Z,13.26
2023-05-22T03:31:26.212Z,13.28
2023-05-22T03:36:27.832Z,13.19
2023-05-22T03:41:29.374Z,13.26
2023-05-22T03:46:30.946Z,13.16
2023-05-22T03:51:32.452Z,13.13
2023-05-22T03:56:34.744Z,13.00
2023-05-22T04:01:39.400Z,13.06
2023-05-22T04:06:43.929Z,13.36
2023-05-22T04:11:46.513Z,13.41
2023-05-22T04:16:50.311Z,13.37
2023-05-22T04:21:52.497Z,13.29
2023-05-22T04:26:54.064Z,13.38
2023-05-22T04:31:55.623Z,13.31
2023-05-22T04:36:57.132Z,13.33
2023-05-22T04:41:58.543Z,13.42
2023-05-22T04:47:05.991Z,13.52
2023-05-22T04:52:11.506Z,13.59
2023-05-22T04:57:13.064Z,13.65
2023-05-22T05:02:14.850Z,13.81
2023-05-22T05:07:17.699Z,13.85
2023-05-22T05:12:19.243Z,13.89
2023-05-22T05:17:22.573Z,13.93
2023-05-22T05:22:24.100Z,14.06
2023-05-22T05:27:26.153Z,13.97
2023-05-22T05:32:27.926Z,14.05
2023-05-22T05:37:29.643Z,14.07
2023-05-22T05:42:31.147Z,14.08
2023-05-22T05:47:32.927Z,14.18
2023-05-22T07:19:12.273Z,19.31
2023-05-22T07:24:18.630Z,19.63
2023-05-22T07:29:21.874Z,19.32
2023-05-22T07:34:29.901Z,19.48
2023-05-22T07:39:31.382Z,19.79
2023-05-22T07:44:33.670Z,19.89
2023-05-22T07:49:35.149Z,20.59
2023-05-22T07:54:36.901Z,20.49
2023-05-22T07:59:38.414Z,20.95
2023-05-22T08:04:40.484Z,21.85
2023-05-22T08:09:46.034Z,21.88
2023-05-22T08:14:47.566Z,21.75
2023-05-22T08:19:49.128Z,21.56
2023-05-22T08:24:51.005Z,22.09
2023-05-22T08:29:52.535Z,21.89
2023-05-22T08:34:53.977Z,21.70
2023-05-22T08:39:55.525Z,22.06
2023-05-22T08:44:57.913Z,22.76
2023-05-22T08:50:00.209Z,22.37
2023-05-22T08:55:05.114Z,22.59
2023-05-22T09:00:08.561Z,22.69
2023-05-22T09:05:10.221Z,22.42
2023-05-22T09:10:11.818Z,22.36
2023-05-22T09:15:13.899Z,22.44
2023-05-22T09:20:15.765Z,22.90
2023-05-22T09:25:21.773Z,22.61
2023-05-22T09:30:23.435Z,22.60
2023-05-22T09:35:27.767Z,22.45
2023-05-22T09:40:29.428Z,23.50
2023-05-22T09:45:34.688Z,22.85
2023-05-22T09:50:37.023Z,23.19
2023-05-22T09:55:39.520Z,23.82
2023-05-22T10:00:41.916Z,24.45
2023-05-22T10:05:48.745Z,24.38
2023-05-22T10:10:53.131Z,23.92
2023-05-22T10:15:55.381Z,23.87
2023-05-22T10:20:58.002Z,23.67
2023-05-22T10:25:59.550Z,24.56
2023-05-22T10:31:09.304Z,25.06
2023-05-22T10:36:31.566Z,23.75
2023-05-22T10:41:33.683Z,24.08
2023-05-22T10:46:36.667Z,24.64
2023-05-22T10:51:38.492Z,24.85
2023-05-22T10:56:40.528Z,24.78
2023-05-22T11:01:42.054Z,25.01
2023-05-22T11:06:47.315Z,24.98
2023-05-22T11:12:17.818Z,24.78
2023-05-22T11:17:29.330Z,24.46
2023-05-22T11:22:39.017Z,24.04
2023-05-22T11:27:41.661Z,24.55
2023-05-22T11:32:45.302Z,25.11
2023-05-22T11:37:47.537Z,25.17
2023-05-22T11:42:49.202Z,24.87
2023-05-22T11:47:50.970Z,25.45
2023-05-22T11:52:53.980Z,24.68
2023-05-22T11:57:56.526Z,24.37
2023-05-22T12:02:58.253Z,24.45
2023-05-22T12:08:00.075Z,25.12
2023-05-22T12:13:01.615Z,25.08
2023-05-22T12:18:03.114Z,25.42
2023-05-22T12:23:04.734Z,25.11
2023-05-22T12:28:07.445Z,25.75
2023-05-22T12:33:15.471Z,26.33
2023-05-22T12:38:16.967Z,25.82
2023-05-22T12:43:18.710Z,26.33
2023-05-22T12:48:20.392Z,26.37
2023-05-22T12:53:21.870Z,26.08
2023-05-22T12:58:23.425Z,26.11
2023-05-22T13:03:25.043Z,25.93
2023-05-22T13:08:26.504Z,26.41
2023-05-22T13:13:28.036Z,26.32
2023-05-22T13:18:29.520Z,26.38
2023-05-22T13:23:31.209Z,26.20
2023-05-22T13:28:32.641Z,26.47
2023-05-22T13:33:34.325Z,26.12
2023-05-22T13:38:35.829Z,25.83
2023-05-22T13:43:37.412Z,25.34
2023-05-22T13:48:38.973Z,24.45
2023-05-22T13:53:40.421Z,24.32
2023-05-22T13:58:41.848Z,23.14
2023-05-22T14:03:44.701Z,22.15
2023-05-22T14:08:46.217Z,20.82
2023-05-22T14:13:48.516Z,20.05
2023-05-22T14:18:50.129Z,20.11
2023-05-22T14:23:51.649Z,20.12
2023-05-22T14:28:53.911Z,20.11
2023-05-22T14:33:55.693Z,20.10
2023-05-22T14:38:57.153Z,19.72
2023-05-22T14:43:58.828Z,19.80
2023-05-22T14:49:00.388Z,19.93
2023-05-22T14:54:01.863Z,19.68
2023-05-22T14:59:03.350Z,19.76
2023-05-22T15:04:05.400Z,19.85
2023-05-22T15:09:07.097Z,19.76
2023-05-22T15:14:08.566Z,20.10
2023-05-22T15:19:10.115Z,20.17
2023-05-22T15:24:11.895Z,20.57
2023-05-22T15:29:13.447Z,20.44
2023-05-22T15:34:14.973Z,20.37
2023-05-22T15:39:16.786Z,19.90
2023-05-22T15:44:19.396Z,20.24
2023-05-22T15:49:20.868Z,19.62
2023-05-22T15:54:22.408Z,19.77
2023-05-22T15:59:23.857Z,20.20
2023-05-22T16:04:25.436Z,20.06
2023-05-22T16:09:26.929Z,19.92
2023-05-22T16:14:28.405Z,19.75
2023-05-22T16:19:30.345Z,19.84
2023-05-22T16:24:32.017Z,19.95
2023-05-22T16:29:33.653Z,19.82
2023-05-22T16:34:36.600Z,19.36
2023-05-22T16:39:39.854Z,19.68
2023-05-22T16:44:41.358Z,19.73
2023-05-22T16:49:42.925Z,19.71
2023-05-22T16:54:44.379Z,19.71
2023-05-22T16:59:46.028Z,20.38
2023-05-22T17:04:47.792Z,19.97
2023-05-22T17:09:49.308Z,20.15
2023-05-22T17:14:51.138Z,20.04
2023-05-22T17:19:53.390Z,20.24
2023-05-22T17:24:54.853Z,19.65
2023-05-22T17:29:56.306Z,19.98
2023-05-22T17:34:57.753Z,20.03
2023-05-22T17:39:59.316Z,19.46
2023-05-22T17:45:00.905Z,19.83
2023-05-22T17:50:02.393Z,19.64
2023-05-22T17:55:04.237Z,19.40
2023-05-22T18:00:09.730Z,18.90
2023-05-22T18:05:11.264Z,18.86
2023-05-22T18:10:13.118Z,18.76
2023-05-22T18:15:14.582Z,18.56
2023-05-22T18:20:16.903Z,18.17
2023-05-22T18:25:18.497Z,18.23
2023-05-22T18:30:20.051Z,18.00
2023-05-22T18:35:21.866Z,17.85
2023-05-22T18:40:23.321Z,17.90
2023-05-22T18:45:24.778Z,17.68
2023-05-22T18:50:26.504Z,17.54
2023-05-22T18:55:28.286Z,17.31
2023-05-22T19:00:30.741Z,17.11
2023-05-22T19:05:32.311Z,17.02
2023-05-22T19:10:33.928Z,16.88
2023-05-22T19:15:35.877Z,17.11
2023-05-22T19:20:37.657Z,16.86
2023-05-22T19:25:39.349Z,16.62
2023-05-22T19:30:41.249Z,16.57
2023-05-22T19:35:43.715Z,16.53
2023-05-22T19:40:46.788Z,16.21
2023-05-22T19:45:48.668Z,16.21
2023-05-22T19:50:50.297Z,16.01
2023-05-22T19:55:51.806Z,15.95
2023-05-22T20:00:53.392Z,15.77
2023-05-22T20:05:54.920Z,15.79
2023-05-22T20:10:56.442Z,15.58
2023-05-22T20:15:58.278Z,15.61
2023-05-22T20:20:59.945Z,15.53
2023-05-22T20:26:01.450Z,15.51
2023-05-22T20:31:04.194Z,15.41
2023-05-22T20:36:06.479Z,15.37
2023-05-22T20:41:09.629Z,15.24
2023-05-22T20:46:11.701Z,15.24
2023-05-22T20:51:15.782Z,15.31
2023-05-22T20:56:17.422Z,15.28
2023-05-22T21:01:18.990Z,15.19
2023-05-22T21:06:20.512Z,15.17
2023-05-22T21:11:22.136Z,15.26
2023-05-22T21:16:26.307Z,15.29
2023-05-22T21:21:28.123Z,15.38
2023-05-22T21:26:29.643Z,15.26
2023-05-22T21:31:35.479Z,15.22
2023-05-22T21:36:37.647Z,15.05
2023-05-22T21:41:39.097Z,14.82
2023-05-22T21:46:40.683Z,14.71
2023-05-22T21:51:42.258Z,14.64
2023-05-22T21:56:43.760Z,14.43
2023-05-22T22:01:45.552Z,14.33
2023-05-22T22:06:47.193Z,14.17
2023-05-22T22:11:48.793Z,14.11
2023-05-22T22:16:54.195Z,14.16
2023-05-22T22:21:55.833Z,14.16
2023-05-22T22:26:57.320Z,14.19
2023-05-22T22:31:58.898Z,14.25
2023-05-22T22:37:00.682Z,14.22
2023-05-22T22:42:05.056Z,14.30
2023-05-22T22:47:07.530Z,14.30
2023-05-22T22:52:09.022Z,14.28
2023-05-22T22:57:10.918Z,14.28
2023-05-22T23:02:12.334Z,14.30
2023-05-22T23:07:13.851Z,14.17
2023-05-22T23:12:15.386Z,14.16
2023-05-22T23:17:16.886Z,14.06
2023-05-22T23:22:18.939Z,14.04
2023-05-22T23:27:20.452Z,13.99
2023-05-22T23:32:22.389Z,13.98
2023-05-22T23:37:23.856Z,13.97
2023-05-22T23:42:25.778Z,13.97
2023-05-22T23:47:27.311Z,13.89
2023-05-22T23:52:28.850Z,13.89
2023-05-22T23:57:30.612Z,13.87
